• Join FlightAware (Why Join?)
  • Login
  • US Flag GB Flag 
14:39 EDT


 

Airport Tracker/Info


-or-


 

Live Flight TrackerFlight Track Log ✈ DAL1562 ✈ 18-Apr-2013 ✈ KPHL - KDTW

Flight Track Log - Related Links

Times and Time Zones

All times are in EDT time to prevent confusion due to time zone crossing. See the DAL1562 flight status page for this flight to view local times or setup timezone preferences in your user account.

Time Position Orientation Groundspeed Altitude Reporting Facility
EDT Latitude Longitude Course Direction KTS MPH feet Rate Location/Type
22:55 39.8794 -75.2111 270° West 161 185 1,300  Level FAA TRACON SMA TRACON (SMA)
22:56 39.8861 -75.1953 61° Northeast 183 211 1,800 1,320 Climbing FAA TRACON SMA TRACON (SMA)
22:56 39.8939 -75.1747 64° Northeast 202 232 2,200 1,860 Climbing FAA TRACON SMA TRACON (SMA)
22:56 39.9047 -75.1464 63° Northeast 227 261 3,100 2,820 Climbing FAA TRACON SMA TRACON (SMA)
22:57 39.9139 -75.1214 64° Northeast 244 281 4,100 3,360 Climbing FAA TRACON SMA TRACON (SMA)
22:57 39.9214 -75.0972 68° East 236 272 5,300 3,420 Climbing FAA TRACON SMA TRACON (SMA)
22:57 39.9300 -75.0658 70° East 238 274 6,400 3,000 Climbing FAA TRACON SMA TRACON (SMA)
22:58 39.9108 -75.6433 288° West  Level FlightAware Approximate
22:58 39.9444 -75.0447 48° Northeast 272 313 7,300  Level FAA TRACON SMA TRACON (SMA)
22:58 39.9714 -75.0364 13° North 275 316 8,300 2,340 Climbing FAA TRACON SMA TRACON (SMA)
22:58 39.9919 -75.0478 337° Northwest 267 307 8,900 1,680 Climbing FAA TRACON SMA TRACON (SMA)
22:59 39.9000 -75.7803 270° West  Level FlightAware Approximate
22:59 40.0042 -75.0722 303° West 271 312 9,400  Level FAA TRACON SMA TRACON (SMA)
22:59 40.0036 -75.1094 269° West 273 314 10,000 1,020 Climbing FAA TRACON SMA TRACON (SMA)
22:59 39.9983 -75.1419 258° West 305 351 10,100  Climbing FAA TRACON SMA TRACON (SMA)
23:00 39.9000 -75.9208 270° West  Level FlightAware Approximate
23:00 39.9936 -75.1772 260° West 336 387 10,000  Level FAA TRACON SMA TRACON (SMA)
23:00 39.9861 -75.2244 258° West 342 394 10,000  Level FAA TRACON SMA TRACON (SMA)
23:00 39.9806 -75.2619 259° West 344 396 10,000  Level FAA TRACON SMA TRACON (SMA)
23:01 39.9744 -75.3025 259° West 343 395 10,000  Level FAA TRACON SMA TRACON (SMA)
23:01 39.9681 -75.3456 259° West 342 394 10,000  Level FAA TRACON SMA TRACON (SMA)
23:01 39.9628 -75.3822 259° West 343 395 10,000  Level FAA TRACON SMA TRACON (SMA)
23:02 39.9553 -75.4292 258° West 341 392 10,000 300 Level FAA TRACON SMA TRACON (SMA)
23:02 39.9497 -75.4661 259° West 341 392 10,200 1,200 Climbing FAA TRACON SMA TRACON (SMA)
23:02 39.9442 -75.5033 259° West 343 395 10,800 2,700 Climbing FAA TRACON SMA TRACON (SMA)
23:03 39.9381 -75.5458 259° West 349 402 12,000 3,180 Climbing FAA TRACON SMA TRACON (SMA)
23:03 39.9306 -75.5911 258° West 358 412 13,000 2,520 Climbing FAA TRACON SMA TRACON (SMA)
23:03 39.9244 -75.6306 259° West 361 415 13,700 2,460 Climbing FAA TRACON SMA TRACON (SMA)
23:04 39.9183 -75.6744 260° West 370 426 14,600 3,000 Climbing FAA TRACON SMA TRACON (SMA)
23:04 39.9178 -75.7217 269° West 375 432 15,700 2,700 Climbing FAA TRACON SMA TRACON (SMA)
23:04 39.9167 -75.7661 268° West 380 437 16,400 2,400 Climbing FAA TRACON SMA TRACON (SMA)
23:05 39.9153 -75.8178 268° West 384 442 17,300 2,100 Climbing FAA TRACON SMA TRACON (SMA)
23:05 39.9147 -75.8633 269° West 390 449 17,800 1,200 Climbing FAA TRACON SMA TRACON (SMA)
23:05 39.9142 -75.8856 268° West 393 452 18,100 1,980 Climbing FAA TRACON SMA TRACON (SMA)
23:07 39.9100 -76.1375 269° West 402 463 21,600 2,040 Climbing New York Center
23:08 39.9111 -76.2947 271° West 414 476 23,300 1,620 Climbing New York Center
23:09 39.9203 -76.4525 274° West 432 497 24,900 1,440 Climbing New York Center
23:10 39.9228 -76.6150 271° West 442 509 26,200 1,200 Climbing New York Center
23:11 39.9417 -76.7792 279° West 453 521 27,300 1,260 Climbing New York Center
23:12 39.9747 -76.9444 285° West 464 534 28,800 1,740 Climbing New York Center
23:13 40.0036 -77.1097 283° West 469 540 30,700 1,800 Climbing New York Center
23:14 40.0328 -77.2617 284° West 462 532 32,500 1,140 Climbing New York Center
23:15 40.0619 -77.4161 284° West 449 517 33,100 900 Climbing New York Center
23:16 40.1039 -77.6325 284° West 442 509 34,800 1,080 Climbing Cleveland Center
23:17 40.1392 -77.7858 287° West 442 509 35,800 600 Climbing Cleveland Center
23:18 40.1781 -77.9364 289° West 442 509 36,000 60 Climbing Cleveland Center
23:19 40.2231 -78.0814 292° West 436 502 36,000  Level Cleveland Center
23:20 40.2658 -78.2267 291° West 436 502 36,000  Level Cleveland Center
23:21 40.3064 -78.3725 290° West 431 496 36,000  Level Cleveland Center
23:22 40.3528 -78.5181 293° West 431 496 36,000  Level Cleveland Center
23:23 40.3928 -78.6611 290° West 425 489 36,000  Level Cleveland Center
23:24 40.4347 -78.8044 291° West 425 489 36,000  Level Cleveland Center
23:25 40.4786 -78.9481 292° West 425 489 36,000  Level Cleveland Center
23:26 40.5203 -79.0892 291° West 425 489 36,000  Level Cleveland Center
23:27 40.5617 -79.2331 291° West 425 489 36,000 -300 Level Cleveland Center
23:28 40.6069 -79.3853 291° West 420 483 35,400 -1,080 Descending Cleveland Center
23:29 40.6458 -79.5242 290° West 410 472 33,900 -1,500 Descending Cleveland Center
23:30 40.6869 -79.6686 291° West 410 472 32,500 -1,500 Descending Cleveland Center
23:31 40.7275 -79.8106 291° West 410 472 31,000 -1,500 Descending Cleveland Center
23:32 40.7658 -79.9417 291° West 418 481 29,500 -1,320 Descending Cleveland Center
23:33 40.8042 -80.0922 289° West 428 493 28,400 -780 Descending Cleveland Center
23:34 40.8442 -80.2400 290° West 428 493 28,000 -240 Descending Cleveland Center
23:35 40.8906 -80.3908 292° West 428 493 28,000  Level Cleveland Center
23:36 40.9322 -80.5447 290° West 433 498 28,000  Level Cleveland Center
23:37 40.9739 -80.6986 290° West 440 506 28,000  Level Cleveland Center
23:38 41.0153 -80.8500 290° West 445 512 28,000 -240 Level Cleveland Center
23:39 41.0669 -80.9881 296° West 434 499 27,600 -900 Descending Cleveland Center
23:40 41.1228 -81.1400 296° West 422 486 26,300 -840 Descending Cleveland Center
23:41 41.1700 -81.2728 295° West 402 463 26,000 -180 Descending Cleveland Center
23:42 41.2150 -81.3892 297° West 402 463 26,000 -480 Level Cleveland Center
23:43 41.2642 -81.5167 297° West 397 457 25,100 -960 Descending Cleveland Center
23:44 41.3150 -81.6419 298° West 391 450 24,100 -600 Descending Cleveland Center
23:45 41.3617 -81.7756 295° West 391 450 24,000 -60 Descending Cleveland Center
23:46 41.4122 -81.9206 295° West 391 450 24,000  Level Cleveland Center
23:47 41.4650 -82.0489 299° West 391 450 24,000  Level Cleveland Center
23:48 41.5278 -82.1725 304° West 401 461 24,000 -420 Level Cleveland Center
23:49 41.5950 -82.2881 308° West 401 461 23,200  Descending Cleveland Center
23:50 41.6642 -82.4008 309° West 402 463 24,000 -3,180 Climbing Cleveland Center
23:51 41.7025 -82.4689 307° West 404 465 18,400 -6,600 Descending Cleveland Center
23:51 41.7331 -82.5169 310° West 402 463 17,400 -2,340 Descending Cleveland Center
23:52 41.7594 -82.5594 310° West 376 433 16,300 -2,640 Descending Cleveland Center
23:52 41.7917 -82.6189 306° West 384 442 14,800 -2,640 Descending Cleveland Center
23:53 41.8503 -82.7211 308° West 360 414 12,200 -1,500 Descending Cleveland Center
23:54 41.9133 -82.8156 312° West 346 398 11,800 -660 Descending Cleveland Center
23:55 41.9317 -82.8356 321° Northwest 339 390 11,400 -1,200 Descending Cleveland Center
23:55 41.9803 -82.8961 317° Northwest 334 384 10,600 -1,320 Descending Cleveland Center
23:56 41.9967 -82.9161 318° Northwest 313 360 10,100 -1,740 Descending Cleveland Center
23:56 42.0456 -82.9739 319° Northwest 321 369 8,900 -1,920 Descending Cleveland Center
23:57 42.0658 -82.9942 323° Northwest 304 350 8,200 -1,740 Descending Cleveland Center
23:57 42.1108 -83.0464 319° Northwest 310 357 7,200 -1,680 Descending Cleveland Center
23:58 42.1308 -83.0722 316° Northwest 306 352 6,500 -1,800 Descending Cleveland Center
23:58 42.1717 -83.1214 318° Northwest 305 351 5,400 -1,680 Descending Cleveland Center
23:59 42.1911 -83.1442 319° Northwest 294 338 4,800 -1,500 Descending FAA TRACON SMA TRACON (SMA)
23:59 42.2117 -83.1725 314° West 286 329 4,400 -1,080 Descending FAA TRACON SMA TRACON (SMA)
23:59 42.2267 -83.1922 316° Northwest 242 278 4,100 -900 Descending FAA TRACON SMA TRACON (SMA)
00:00 42.2411 -83.2122 314° West 238 274 3,800 -780 Descending FAA TRACON SMA TRACON (SMA)
00:00 42.2581 -83.2358 314° West 230 265 3,600 -900 Descending FAA TRACON SMA TRACON (SMA)
00:00 42.2703 -83.2514 317° Northwest 197 227 3,200 -1,200 Descending FAA TRACON SMA TRACON (SMA)